createdAt,value
2022-09-07T00:01:15.734Z,5.90
2022-09-07T00:03:42.022Z,5.32
2022-09-07T00:06:09.391Z,4.50
2022-09-07T00:08:35.733Z,11.10
2022-09-07T00:11:03.898Z,6.28
2022-09-07T00:13:31.916Z,6.45
2022-09-07T00:15:58.679Z,7.72
2022-09-07T00:18:25.105Z,6.03
2022-09-07T00:20:58.423Z,6.28
2022-09-07T00:23:24.727Z,3.70
2022-09-07T00:25:54.009Z,7.82
2022-09-07T00:28:20.503Z,5.83
2022-09-07T00:30:46.743Z,10.73
2022-09-07T00:33:12.982Z,6.40
2022-09-07T00:35:40.051Z,7.90
2022-09-07T00:38:06.331Z,3.85
2022-09-07T00:40:32.568Z,5.45
2022-09-07T00:42:58.807Z,6.47
2022-09-07T00:45:25.304Z,5.38
2022-09-07T00:48:02.891Z,9.45
2022-09-07T00:50:33.670Z,7.00
2022-09-07T00:53:04.016Z,6.30
2022-09-07T00:57:57.400Z,5.70
2022-09-07T01:00:23.914Z,6.22
2022-09-07T01:02:51.014Z,6.75
2022-09-07T01:05:21.274Z,5.28
2022-09-07T01:07:47.539Z,4.03
2022-09-07T01:10:14.279Z,7.45
2022-09-07T01:12:40.559Z,6.82
2022-09-07T01:15:07.170Z,6.45
2022-09-07T01:17:41.547Z,5.80
2022-09-07T01:20:26.385Z,5.25
2022-09-07T01:22:52.684Z,7.28
2022-09-07T01:25:18.902Z,9.73
2022-09-07T01:28:05.948Z,13.23
2022-09-07T01:30:35.242Z,5.80
2022-09-07T01:33:01.564Z,4.10
2022-09-07T01:35:46.530Z,5.10
2022-09-07T01:38:27.828Z,3.95
2022-09-07T01:41:10.022Z,3.25
2022-09-07T01:43:47.962Z,3.10
2022-09-07T01:46:17.876Z,8.60
2022-09-07T01:48:46.307Z,5.10
2022-09-07T01:51:12.976Z,3.95
2022-09-07T01:53:46.364Z,3.42
2022-09-07T01:56:14.600Z,3.05
2022-09-07T01:58:40.818Z,4.78
2022-09-07T02:01:09.272Z,5.43
2022-09-07T02:03:39.537Z,3.35
2022-09-07T02:08:33.888Z,4.40
2022-09-07T02:11:04.408Z,6.15
2022-09-07T02:13:30.734Z,6.10
2022-09-07T02:16:02.077Z,4.18
2022-09-07T02:18:31.761Z,4.00
2022-09-07T02:20:59.468Z,4.28
2022-09-07T02:23:28.565Z,5.20
2022-09-07T02:26:02.623Z,3.55
2022-09-07T02:28:36.478Z,4.03
2022-09-07T02:31:03.172Z,3.97
2022-09-07T02:33:29.663Z,3.10
2022-09-07T02:35:56.467Z,9.63
2022-09-07T02:38:23.410Z,4.60
2022-09-07T02:40:50.866Z,3.90
2022-09-07T02:43:17.115Z,3.38
2022-09-07T02:46:02.959Z,3.47
2022-09-07T02:48:40.340Z,4.93
2022-09-07T02:51:22.859Z,4.90
2022-09-07T02:53:49.147Z,3.53
2022-09-07T02:56:36.408Z,7.05
2022-09-07T02:59:02.628Z,3.72
2022-09-07T03:01:36.999Z,4.38
2022-09-07T03:04:15.193Z,5.22
2022-09-07T03:06:44.332Z,6.93
2022-09-07T03:09:13.335Z,2.85
2022-09-07T03:11:39.588Z,4.45
2022-09-07T03:14:12.622Z,4.45
2022-09-07T03:16:39.047Z,3.28
2022-09-07T03:19:05.675Z,5.97
2022-09-07T03:21:31.955Z,4.00
2022-09-07T03:23:58.193Z,6.32
2022-09-07T03:26:25.168Z,9.05
2022-09-07T03:28:51.685Z,5.15
2022-09-07T03:31:17.975Z,5.03
2022-09-07T03:33:44.294Z,3.50
2022-09-07T03:36:10.556Z,3.05
2022-09-07T03:38:36.806Z,4.68
2022-09-07T03:41:04.538Z,5.72
2022-09-07T03:43:31.203Z,3.20
2022-09-07T03:46:01.358Z,6.55
2022-09-07T03:48:31.402Z,5.22
2022-09-07T03:50:58.873Z,2.13
2022-09-07T03:53:25.219Z,5.85
2022-09-07T03:55:58.384Z,5.30
2022-09-07T03:58:25.384Z,6.47
2022-09-07T04:00:51.699Z,2.90
2022-09-07T04:03:18.012Z,6.43
2022-09-07T04:05:44.299Z,5.57
2022-09-07T04:08:10.559Z,13.93
2022-09-07T04:10:37.507Z,8.27
2022-09-07T04:13:04.173Z,4.78
2022-09-07T04:15:30.450Z,3.30
2022-09-07T04:17:56.718Z,6.63
2022-09-07T04:20:22.984Z,7.95
2022-09-07T04:22:54.097Z,3.65
2022-09-07T04:25:20.626Z,4.55
2022-09-07T04:27:46.871Z,2.75
2022-09-07T04:30:13.525Z,2.38
2022-09-07T04:32:39.771Z,4.93
2022-09-07T04:35:06.383Z,3.72
2022-09-07T04:37:32.658Z,4.55
2022-09-07T04:39:58.952Z,6.25
2022-09-07T04:42:25.270Z,4.88
2022-09-07T04:44:51.575Z,3.30
2022-09-07T04:47:17.817Z,3.45
2022-09-07T04:49:44.064Z,8.65
2022-09-07T04:52:10.338Z,7.72
2022-09-07T04:54:36.633Z,14.70
2022-09-07T04:57:02.879Z,11.68
2022-09-07T04:59:29.201Z,7.30
2022-09-07T05:01:55.492Z,8.02
2022-09-07T05:04:21.803Z,6.82
2022-09-07T05:06:48.044Z,6.93
2022-09-07T05:09:14.340Z,4.43
2022-09-07T05:11:40.599Z,4.70
2022-09-07T05:14:08.041Z,10.65
2022-09-07T05:16:34.364Z,3.17
2022-09-07T05:19:01.552Z,10.93
2022-09-07T05:21:29.437Z,6.45
2022-09-07T05:23:56.778Z,5.00
2022-09-07T05:26:24.065Z,3.63
2022-09-07T05:28:50.692Z,5.90
2022-09-07T05:31:18.971Z,5.55
2022-09-07T05:36:33.186Z,7.43
2022-09-07T05:38:59.559Z,7.05
2022-09-07T05:41:26.442Z,5.20
2022-09-07T05:46:40.235Z,7.65
2022-09-07T05:49:07.962Z,9.25
2022-09-07T05:51:34.276Z,9.93
2022-09-07T05:54:00.696Z,3.72
2022-09-07T05:56:27.003Z,7.13
2022-09-07T05:58:53.255Z,6.38
2022-09-07T06:01:19.635Z,7.15
2022-09-07T06:03:45.947Z,4.60
2022-09-07T06:06:16.587Z,5.95
2022-09-07T06:08:46.938Z,6.45
2022-09-07T06:13:40.005Z,7.35
2022-09-07T06:16:07.095Z,5.45
2022-09-07T06:18:37.183Z,7.72
2022-09-07T06:21:07.435Z,13.43
2022-09-07T06:23:34.488Z,6.32
2022-09-07T06:26:01.083Z,8.02
2022-09-07T06:28:37.475Z,8.13
2022-09-07T06:31:08.188Z,8.98
2022-09-07T06:33:35.460Z,9.23
2022-09-07T06:36:03.429Z,5.47
2022-09-07T06:38:31.965Z,5.38
2022-09-07T06:43:51.201Z,9.45
2022-09-07T06:49:03.851Z,7.30
2022-09-07T06:51:30.417Z,10.60
2022-09-07T06:56:43.782Z,11.07
2022-09-07T06:59:10.645Z,12.38
2022-09-07T07:01:36.956Z,13.93
2022-09-07T07:04:03.250Z,10.57
2022-09-07T07:06:36.224Z,11.80
2022-09-07T07:09:03.572Z,7.80
2022-09-07T07:11:31.129Z,8.98
2022-09-07T07:13:57.845Z,11.90
2022-09-07T07:16:24.142Z,10.02
2022-09-07T07:18:54.241Z,9.13
2022-09-07T07:21:20.642Z,9.00
2022-09-07T07:23:51.148Z,10.40
2022-09-07T07:26:18.765Z,13.20
2022-09-07T07:29:04.760Z,14.45
2022-09-07T07:31:33.096Z,10.23
2022-09-07T07:34:38.962Z,9.65
2022-09-07T07:37:05.214Z,11.60
2022-09-07T07:42:17.771Z,13.82
2022-09-07T07:44:43.986Z,14.00
2022-09-07T07:47:10.230Z,19.73
2022-09-07T07:49:36.450Z,12.70
2022-09-07T07:54:48.966Z,12.38
2022-09-07T07:57:16.779Z,12.98
2022-09-07T07:59:42.985Z,13.73
2022-09-07T08:02:13.570Z,15.65
2022-09-07T08:04:39.899Z,13.93
2022-09-07T08:07:10.759Z,10.40
2022-09-07T08:09:41.261Z,13.25
2022-09-07T08:12:07.990Z,12.50
2022-09-07T08:14:36.545Z,19.45
2022-09-07T08:17:02.902Z,14.23
2022-09-07T08:19:29.087Z,15.25
2022-09-07T08:21:55.288Z,17.13
2022-09-07T08:24:21.490Z,17.17
2022-09-07T08:26:47.694Z,19.35
2022-09-07T08:29:13.918Z,16.02
2022-09-07T08:31:40.601Z,20.00
2022-09-07T08:34:07.658Z,19.92
2022-09-07T08:36:33.879Z,17.77
2022-09-07T08:39:00.095Z,19.90
2022-09-07T08:41:26.625Z,20.58
2022-09-07T08:43:57.050Z,20.42
2022-09-07T08:46:33.168Z,21.65
2022-09-07T08:49:01.094Z,19.73
2022-09-07T08:51:39.741Z,17.27
2022-09-07T08:54:06.004Z,21.90
2022-09-07T08:56:37.664Z,21.00
2022-09-07T08:59:13.131Z,20.17
2022-09-07T09:01:41.597Z,15.98
2022-09-07T09:04:19.158Z,22.67
2022-09-07T09:06:55.151Z,17.42
2022-09-07T09:09:40.049Z,18.48
2022-09-07T09:12:21.551Z,20.48
2022-09-07T09:15:02.630Z,17.10
2022-09-07T09:17:39.392Z,20.23
2022-09-07T09:20:12.079Z,17.60
2022-09-07T09:22:38.619Z,15.95
2022-09-07T09:25:15.940Z,14.63
2022-09-07T09:27:42.187Z,17.27
2022-09-07T09:30:12.430Z,18.00
2022-09-07T09:35:26.324Z,12.40
2022-09-07T09:37:52.524Z,14.45
2022-09-07T09:40:26.837Z,14.88
2022-09-07T09:43:06.287Z,11.82
2022-09-07T09:48:29.806Z,14.35
2022-09-07T09:53:52.547Z,10.70
2022-09-07T09:56:18.780Z,11.23
2022-09-07T10:01:35.314Z,10.25
2022-09-07T10:04:24.666Z,13.00
2022-09-07T10:06:54.989Z,10.25
2022-09-07T10:09:37.836Z,8.77
2022-09-07T10:12:06.166Z,11.80
2022-09-07T10:14:41.711Z,8.18
2022-09-07T10:17:12.518Z,14.15
2022-09-07T10:19:40.333Z,12.20
2022-09-07T10:22:20.663Z,11.98
2022-09-07T10:24:46.879Z,7.63
2022-09-07T10:27:19.942Z,9.80
2022-09-07T10:29:46.223Z,9.52
2022-09-07T10:32:30.939Z,9.43
2022-09-07T10:34:57.121Z,7.78
2022-09-07T10:37:42.202Z,6.55
2022-09-07T10:40:21.793Z,10.80
2022-09-07T10:45:45.024Z,3.70
2022-09-07T10:48:11.207Z,5.93
2022-09-07T10:50:48.121Z,4.25
2022-09-07T10:53:40.564Z,6.65
2022-09-07T10:56:23.264Z,5.90
2022-09-07T10:59:03.044Z,8.13
2022-09-07T11:01:35.463Z,9.30
2022-09-07T11:04:10.517Z,7.25
2022-09-07T11:06:41.504Z,8.88
2022-09-07T11:09:22.658Z,4.70
2022-09-07T11:12:07.054Z,4.60
2022-09-07T11:14:47.732Z,6.65
2022-09-07T11:17:17.279Z,6.80
2022-09-07T11:19:43.458Z,7.97
2022-09-07T11:22:32.396Z,7.10
2022-09-07T11:25:32.812Z,8.82
2022-09-07T11:28:01.498Z,7.43
2022-09-07T11:30:33.311Z,8.90
2022-09-07T11:33:02.557Z,5.03
2022-09-07T11:37:59.461Z,8.20
2022-09-07T11:40:34.629Z,8.80
2022-09-07T11:43:11.399Z,7.30
2022-09-07T11:45:43.259Z,9.98
2022-09-07T11:48:12.151Z,8.07
2022-09-07T11:50:42.815Z,9.48
2022-09-07T11:53:19.967Z,9.00
2022-09-07T11:55:49.499Z,8.05
2022-09-07T12:00:53.640Z,10.85
2022-09-07T12:03:22.882Z,10.02
2022-09-07T12:05:57.386Z,9.38
2022-09-07T12:08:36.236Z,10.82
2022-09-07T12:11:05.294Z,11.35
2022-09-07T12:13:52.099Z,7.18
2022-09-07T12:16:21.728Z,6.97
2022-09-07T12:18:57.174Z,6.18
2022-09-07T12:21:42.720Z,6.38
2022-09-07T12:24:27.759Z,10.98
2022-09-07T12:26:54.266Z,9.23
2022-09-07T12:29:24.985Z,11.65
2022-09-07T12:32:52.380Z,15.32
2022-09-07T12:34:53.491Z,10.00
2022-09-07T12:37:25.666Z,10.90
2022-09-07T12:40:11.890Z,6.95
2022-09-07T12:42:38.120Z,12.32
2022-09-07T12:45:30.501Z,10.85
2022-09-07T12:47:58.031Z,13.57
2022-09-07T12:50:29.444Z,7.13
2022-09-07T12:53:18.012Z,12.25
2022-09-07T12:56:18.020Z,6.10
2022-09-07T12:58:44.448Z,10.48
2022-09-07T13:01:30.650Z,8.23
2022-09-07T13:04:09.366Z,11.02
2022-09-07T13:07:02.899Z,8.27
2022-09-07T13:09:39.193Z,4.90
2022-09-07T13:15:28.954Z,6.38
2022-09-07T13:17:56.087Z,9.88
2022-09-07T13:20:29.883Z,9.32
2022-09-07T13:22:57.207Z,5.65
2022-09-07T13:25:26.313Z,7.68
2022-09-07T13:28:00.485Z,5.78
2022-09-07T13:30:44.876Z,9.80
2022-09-07T13:33:34.579Z,11.20
2022-09-07T13:36:01.983Z,9.75
2022-09-07T13:38:29.550Z,4.30
2022-09-07T13:40:59.920Z,6.28
2022-09-07T13:43:26.205Z,5.57
2022-09-07T13:45:55.398Z,8.45
2022-09-07T13:48:24.060Z,9.00
2022-09-07T13:51:05.716Z,6.15
2022-09-07T13:53:50.402Z,5.47
2022-09-07T13:56:35.192Z,4.35
2022-09-07T13:59:10.841Z,7.28
2022-09-07T14:01:42.231Z,5.75
2022-09-07T14:04:17.387Z,7.22
2022-09-07T14:06:43.675Z,4.72
2022-09-07T14:09:14.343Z,3.75
2022-09-07T14:11:40.745Z,7.07
2022-09-07T14:14:13.616Z,4.20
2022-09-07T14:16:40.989Z,8.98
2022-09-07T14:19:26.844Z,6.40
2022-09-07T14:21:54.068Z,4.57
2022-09-07T14:24:25.603Z,5.72
2022-09-07T14:26:52.900Z,7.53
2022-09-07T14:29:23.422Z,6.47
2022-09-07T14:31:50.636Z,10.27
2022-09-07T14:34:17.947Z,3.70
2022-09-07T14:36:46.802Z,4.15
2022-09-07T14:39:16.946Z,3.27
2022-09-07T14:41:43.724Z,8.13
2022-09-07T14:44:28.618Z,6.07
2022-09-07T14:46:57.075Z,4.40
2022-09-07T14:49:24.159Z,2.70
2022-09-07T14:51:51.830Z,5.03
2022-09-07T14:54:31.943Z,10.13
2022-09-07T14:57:10.070Z,5.85
2022-09-07T14:59:41.172Z,4.90
2022-09-07T15:02:23.967Z,8.32
2022-09-07T15:05:10.243Z,7.22
2022-09-07T15:07:39.998Z,6.90
2022-09-07T15:12:38.607Z,6.15
2022-09-07T15:15:31.531Z,4.72
2022-09-07T15:18:05.891Z,10.52
2022-09-07T15:20:35.994Z,4.47
2022-09-07T15:23:20.218Z,4.35
2022-09-07T15:25:51.116Z,3.88
2022-09-07T15:31:49.722Z,8.25
2022-09-07T15:36:42.491Z,6.75
2022-09-07T15:39:17.072Z,7.22
2022-09-07T15:41:43.378Z,10.80
2022-09-07T15:44:09.761Z,6.97
2022-09-07T15:46:37.194Z,7.63
2022-09-07T15:49:03.580Z,9.30
2022-09-07T15:54:16.495Z,5.18
2022-09-07T15:56:44.360Z,9.07
2022-09-07T15:59:29.449Z,8.70
2022-09-07T16:01:56.037Z,6.25
2022-09-07T16:04:23.997Z,5.38
2022-09-07T16:06:50.513Z,7.43
2022-09-07T16:09:17.484Z,6.03
2022-09-07T16:11:44.111Z,2.67
2022-09-07T16:14:12.273Z,5.57
2022-09-07T16:19:24.708Z,6.10
2022-09-07T16:21:50.919Z,12.32
2022-09-07T16:24:17.431Z,9.40
2022-09-07T16:26:43.687Z,4.38
2022-09-07T16:29:10.242Z,7.60
2022-09-07T16:31:37.097Z,7.88
2022-09-07T16:34:03.866Z,8.50
2022-09-07T16:36:30.641Z,5.05
2022-09-07T16:38:58.813Z,5.28
2022-09-07T16:41:27.324Z,5.28
2022-09-07T16:43:54.774Z,8.65
2022-09-07T16:46:22.739Z,7.53
2022-09-07T16:48:49.918Z,6.72
2022-09-07T16:51:18.711Z,9.88
2022-09-07T16:53:45.261Z,11.15
2022-09-07T16:56:19.083Z,8.85
2022-09-07T16:58:46.499Z,5.60
2022-09-07T17:01:14.083Z,6.20
2022-09-07T17:03:40.569Z,8.70
2022-09-07T17:06:08.389Z,7.45
2022-09-07T17:08:35.240Z,8.80
2022-09-07T17:11:02.528Z,7.80
2022-09-07T17:13:30.165Z,8.43
2022-09-07T17:16:01.586Z,6.13
2022-09-07T17:21:14.551Z,9.63
2022-09-07T17:23:49.402Z,7.82
2022-09-07T17:26:21.135Z,4.90
2022-09-07T17:28:49.135Z,8.65
2022-09-07T17:32:23.821Z,5.82
2022-09-07T17:34:01.548Z,8.93
2022-09-07T17:36:28.763Z,3.55
2022-09-07T17:41:43.677Z,3.80
2022-09-07T17:44:09.909Z,3.85
2022-09-07T17:46:36.180Z,5.88
2022-09-07T17:49:02.684Z,10.40
2022-09-07T17:51:30.350Z,3.67
2022-09-07T17:53:58.913Z,6.85
2022-09-07T17:56:25.432Z,9.05
2022-09-07T17:58:51.898Z,6.63
2022-09-07T18:01:19.015Z,6.45
2022-09-07T18:03:45.540Z,7.03
2022-09-07T18:06:11.815Z,9.82
2022-09-07T18:08:38.142Z,8.52
2022-09-07T18:13:53.324Z,6.05
2022-09-07T18:16:19.535Z,6.22
2022-09-07T18:18:46.241Z,4.35
2022-09-07T18:21:14.280Z,5.88
2022-09-07T18:23:40.997Z,8.52
2022-09-07T18:26:07.351Z,8.43
2022-09-07T18:31:20.354Z,6.82
2022-09-07T18:33:47.682Z,11.07
2022-09-07T18:36:14.593Z,9.73
2022-09-07T18:38:41.116Z,3.88
2022-09-07T18:41:09.356Z,6.80
2022-09-07T18:43:37.985Z,5.45
2022-09-07T18:46:08.714Z,9.32
2022-09-07T18:48:35.233Z,10.05
2022-09-07T18:51:01.933Z,4.90
2022-09-07T18:53:28.687Z,4.82
2022-09-07T18:56:00.723Z,5.70
2022-09-07T18:58:27.038Z,7.00
2022-09-07T19:00:57.816Z,4.82
2022-09-07T19:03:25.154Z,7.25
2022-09-07T19:05:56.897Z,8.57
2022-09-07T19:08:23.170Z,7.90
2022-09-07T19:10:49.355Z,8.98
2022-09-07T19:13:15.579Z,4.22
2022-09-07T19:15:41.791Z,4.15
2022-09-07T19:18:08.092Z,8.00
2022-09-07T19:20:34.835Z,6.13
2022-09-07T19:23:01.045Z,6.90
2022-09-07T19:25:27.282Z,10.65
2022-09-07T19:27:53.512Z,5.65
2022-09-07T19:30:19.840Z,5.80
2022-09-07T19:32:46.108Z,5.82
2022-09-07T19:35:12.383Z,12.25
2022-09-07T19:37:38.598Z,12.25
2022-09-07T19:40:05.070Z,8.90
2022-09-07T19:42:31.344Z,5.32
2022-09-07T19:44:57.613Z,11.25
2022-09-07T19:47:23.971Z,9.25
2022-09-07T19:49:50.228Z,6.47
2022-09-07T19:52:16.572Z,5.82
2022-09-07T19:54:43.002Z,14.50
2022-09-07T19:57:09.218Z,11.68
2022-09-07T19:59:35.418Z,6.75
2022-09-07T20:02:01.707Z,12.55
2022-09-07T20:04:28.178Z,2.92
2022-09-07T20:06:54.476Z,6.90
2022-09-07T20:09:20.744Z,9.23
2022-09-07T20:11:47.771Z,7.88
2022-09-07T20:14:14.627Z,4.07
2022-09-07T20:16:41.501Z,10.18
2022-09-07T20:19:07.941Z,14.93
2022-09-07T20:21:36.696Z,14.00
2022-09-07T20:24:03.819Z,7.38
2022-09-07T20:26:32.800Z,10.05
2022-09-07T20:29:23.423Z,8.90
2022-09-07T20:31:46.481Z,7.45
2022-09-07T20:34:12.949Z,7.00
2022-09-07T20:36:39.511Z,14.73
2022-09-07T20:39:06.142Z,6.45
2022-09-07T20:41:33.773Z,14.35
2022-09-07T20:44:00.794Z,9.05
2022-09-07T20:46:28.299Z,17.60
2022-09-07T20:48:54.634Z,12.27
2022-09-07T20:51:21.280Z,7.75
2022-09-07T20:53:48.420Z,12.90
2022-09-07T20:56:18.539Z,9.20
2022-09-07T20:58:45.750Z,8.25
2022-09-07T21:01:12.711Z,4.40
2022-09-07T21:03:39.064Z,9.20
2022-09-07T21:06:06.113Z,10.02
2022-09-07T21:08:39.591Z,8.85
2022-09-07T21:11:10.512Z,7.07
2022-09-07T21:13:36.784Z,8.27
2022-09-07T21:16:05.375Z,6.47
2022-09-07T21:18:32.975Z,7.57
2022-09-07T21:21:19.264Z,8.32
2022-09-07T21:23:46.756Z,15.50
2022-09-07T21:26:13.098Z,3.53
2022-09-07T21:28:39.300Z,8.57
2022-09-07T21:31:06.810Z,5.68
2022-09-07T21:33:34.221Z,14.40
2022-09-07T21:36:07.529Z,3.75
2022-09-07T21:38:34.566Z,5.90
2022-09-07T21:41:05.529Z,12.45
2022-09-07T21:43:31.748Z,6.60
2022-09-07T21:45:58.009Z,3.38
2022-09-07T21:48:24.230Z,4.72
2022-09-07T21:50:56.127Z,3.70
2022-09-07T21:53:22.361Z,4.47
2022-09-07T21:55:55.086Z,6.25
2022-09-07T21:58:21.592Z,3.42
2022-09-07T22:00:47.884Z,16.42
2022-09-07T22:03:14.125Z,5.28
2022-09-07T22:05:40.415Z,9.23
2022-09-07T22:08:06.726Z,7.70
2022-09-07T22:10:33.545Z,5.55
2022-09-07T22:12:59.764Z,3.90
2022-09-07T22:15:26.056Z,5.72
2022-09-07T22:17:55.321Z,9.70
2022-09-07T22:20:21.730Z,9.30
2022-09-07T22:22:47.931Z,3.13
2022-09-07T22:25:14.262Z,5.25
2022-09-07T22:27:40.526Z,5.03
2022-09-07T22:30:07.284Z,9.90
2022-09-07T22:32:33.570Z,8.82
2022-09-07T22:34:59.794Z,11.98
2022-09-07T22:37:25.994Z,10.75
2022-09-07T22:39:52.371Z,4.93
2022-09-07T22:42:18.609Z,5.03
2022-09-07T22:44:44.836Z,7.65
2022-09-07T22:47:11.035Z,9.63
2022-09-07T22:49:37.243Z,16.45
2022-09-07T22:52:03.915Z,8.80
2022-09-07T22:54:30.174Z,4.35
2022-09-07T22:56:56.428Z,6.82
2022-09-07T22:59:22.641Z,9.90
2022-09-07T23:01:49.352Z,6.50
2022-09-07T23:04:15.795Z,2.67
2022-09-07T23:06:42.550Z,5.45
2022-09-07T23:09:15.719Z,8.32
2022-09-07T23:11:42.411Z,7.03
2022-09-07T23:14:12.686Z,7.80
2022-09-07T23:19:05.299Z,13.20
2022-09-07T23:21:31.585Z,5.65
2022-09-07T23:23:59.596Z,4.55
2022-09-07T23:26:27.148Z,13.07
2022-09-07T23:28:54.226Z,9.23
2022-09-07T23:31:20.995Z,6.38
2022-09-07T23:33:47.540Z,4.97
2022-09-07T23:36:14.206Z,4.97
2022-09-07T23:38:40.430Z,7.93
2022-09-07T23:41:06.648Z,11.77
2022-09-07T23:43:33.091Z,4.75
2022-09-07T23:45:59.856Z,18.17
2022-09-07T23:48:26.276Z,11.73
2022-09-07T23:50:53.176Z,10.90
2022-09-07T23:53:20.149Z,4.97
2022-09-07T23:55:48.490Z,4.45
2022-09-07T23:58:14.731Z,6.50
